Time;durP1;ratioP1;P1;durP2;ratioP2;P2;SDS_P1;SDS_P2;PMS_P1;PMS_P2;Temp;Humidity;BMP_temperature;BMP_pressure;BME280_temperature;BME280_humidity;BME280_pressure;Samples;Min_cycle;Max_cycle;Signal;HPM_P1;HPM_P2
2021/04/28 00:01:58;;;;;;;3.05;1.98;;;;;;;17.78;42.47;100946.47;6379068;22;19998;-80
2021/04/28 00:04:24;;;;;;;3.00;1.83;;;;;;;17.77;42.26;100938.66;6381514;22;19994;-80
2021/04/28 00:06:50;;;;;;;4.47;2.00;;;;;;;17.80;42.49;100939.50;6380114;22;20139;-80
2021/04/28 00:09:16;;;;;;;3.03;2.05;;;;;;;17.78;42.55;100943.00;6381917;22;20017;-80
2021/04/28 00:11:42;;;;;;;2.67;2.08;;;;;;;17.70;42.32;100932.66;6378438;22;20018;-80
2021/04/28 00:14:09;;;;;;;2.50;1.92;;;;;;;17.66;42.47;100931.81;6379924;22;20006;-80
2021/04/28 00:16:35;;;;;;;2.75;1.92;;;;;;;17.65;42.59;100931.81;6379536;22;20009;-80
2021/04/28 00:19:01;;;;;;;3.20;1.60;;;;;;;17.65;42.36;100929.22;6379906;22;20002;-80
2021/04/28 00:21:29;;;;;;;3.45;2.10;;;;;;;17.66;42.43;100931.81;6382815;22;20029;-80
2021/04/28 00:23:58;;;;;;;1.98;1.58;;;;;;;17.65;42.53;100922.28;6379783;22;20005;-80
2021/04/28 00:26:24;;;;;;;3.97;1.90;;;;;;;17.65;42.41;100924.03;6379812;22;20016;-80
2021/04/28 00:28:50;;;;;;;2.63;1.80;;;;;;;17.62;42.26;100924.06;6381182;22;20037;-80
2021/04/28 00:31:15;;;;;;;2.80;2.10;;;;;;;17.63;42.38;100921.41;6357753;22;20010;-80
2021/04/28 00:33:41;;;;;;;2.78;1.70;;;;;;;17.63;42.45;100925.78;6384356;22;20127;-80
2021/04/28 00:36:11;;;;;;;2.80;1.80;;;;;;;17.59;42.58;100913.66;6306538;22;20020;-80
2021/04/28 00:38:38;;;;;;;2.70;1.85;;;;;;;17.53;42.42;100911.09;6293608;22;20014;-80
2021/04/28 00:41:08;;;;;;;2.13;1.65;;;;;;;17.49;42.60;100907.69;6293933;22;20016;-80
2021/04/28 00:43:37;;;;;;;2.35;1.70;;;;;;;17.51;42.60;100907.66;6267186;22;20004;-80
2021/04/28 00:49:27;;;;;;;3.08;2.10;;;;;;;17.46;42.34;100898.16;6294170;22;20023;-80
2021/04/28 00:51:53;;;;;;;3.47;1.90;;;;;;;17.47;42.51;100899.88;6294581;22;20043;-80
2021/04/28 00:54:18;;;;;;;4.32;2.00;;;;;;;17.47;42.16;100904.22;6293354;22;20003;-81
2021/04/28 00:56:45;;;;;;;2.83;1.60;;;;;;;17.45;42.38;100893.81;6242621;22;20130;-80
2021/04/28 00:59:15;;;;;;;2.20;1.65;;;;;;;17.48;42.67;100885.13;6268495;22;20073;-81
2021/04/28 01:01:41;;;;;;;2.53;1.77;;;;;;;17.48;42.65;100888.63;6296674;22;20014;-80
2021/04/28 01:04:09;;;;;;;3.20;1.85;;;;;;;17.51;42.57;100886.84;6219620;22;20008;-80
2021/04/28 01:06:35;;;;;;;5.15;2.10;;;;;;;17.48;42.68;100885.13;6268818;22;20000;-80
2021/04/28 01:09:02;;;;;;;2.55;1.80;;;;;;;17.42;42.26;100883.44;6294661;22;20032;-80
2021/04/28 01:11:28;;;;;;;2.65;2.10;;;;;;;17.40;42.41;100882.59;6295412;22;20036;-80
2021/04/28 01:13:56;;;;;;;2.30;1.80;;;;;;;17.40;42.29;100881.75;6269455;22;20024;-80
2021/04/28 01:16:26;;;;;;;4.43;2.05;;;;;;;17.39;42.46;100883.47;6266874;22;20007;-80
2021/04/28 01:18:54;;;;;;;2.63;2.00;;;;;;;17.42;42.44;100877.38;6291623;22;20019;-80
2021/04/28 01:21:20;;;;;;;5.07;2.10;;;;;;;17.38;42.19;100873.94;6291254;22;20011;-80
2021/04/28 01:23:45;;;;;;;3.53;2.10;;;;;;;17.37;41.91;100872.19;6290745;22;20007;-80
2021/04/28 01:26:11;;;;;;;4.07;1.75;;;;;;;17.38;42.30;100873.09;6240578;22;20067;-80
2021/04/28 01:28:38;;;;;;;2.10;1.80;;;;;;;17.37;42.23;100874.81;6263026;22;20320;-80
2021/04/28 01:31:07;;;;;;;2.70;1.90;;;;;;;17.35;42.37;100866.16;6289448;22;20016;-80
2021/04/28 01:33:39;;;;;;;5.38;2.20;;;;;;;17.39;42.57;100872.19;6246310;23;20087;-80
2021/04/28 01:36:09;;;;;;;2.30;1.80;;;;;;;17.34;42.18;100864.44;6280618;22;20003;-80
2021/04/28 01:38:39;;;;;;;2.75;1.80;;;;;;;17.31;42.37;100872.28;6301889;22;20010;-80
2021/04/28 01:41:05;;;;;;;3.30;1.90;;;;;;;17.31;42.34;100866.19;6300786;22;20015;-80
2021/04/28 01:43:32;;;;;;;2.35;2.08;;;;;;;17.33;42.46;100865.28;6264686;22;19999;-80
2021/04/28 01:45:58;;;;;;;2.50;1.83;;;;;;;17.28;42.20;100867.09;6264252;22;20065;-80
2021/04/28 01:48:23;;;;;;;3.13;1.90;;;;;;;17.27;42.71;100863.63;6289214;22;20000;-80
2021/04/28 01:50:51;;;;;;;2.75;2.05;;;;;;;17.27;42.51;100857.56;6316565;22;20023;-80
2021/04/28 01:53:25;;;;;;;4.05;2.10;;;;;;;17.30;42.28;100857.53;6351341;22;20014;-80
2021/04/28 01:55:53;;;;;;;4.55;1.90;;;;;;;17.27;42.18;100862.78;6351860;22;20085;-80
2021/04/28 01:58:25;;;;;;;4.28;2.10;;;;;;;17.28;42.21;100860.13;6298805;22;20026;-80
2021/04/28 02:00:52;;;;;;;3.13;2.13;;;;;;;17.28;42.33;100859.28;6326610;22;20007;-80
2021/04/28 02:03:26;;;;;;;2.33;1.90;;;;;;;17.31;42.13;100861.88;6325314;22;20003;-80
2021/04/28 02:05:52;;;;;;;3.20;2.13;;;;;;;17.30;41.80;100857.53;6325883;22;20062;-80
2021/04/28 02:08:19;;;;;;;2.78;1.70;;;;;;;17.28;42.37;100857.53;6355439;22;20002;-80
2021/04/28 02:10:47;;;;;;;3.08;2.10;;;;;;;17.28;42.44;100854.06;6302793;22;20015;-80
2021/04/28 02:17:02;;;;;;;3.20;1.73;;;;;;;17.38;42.48;100847.94;6355632;22;20026;-80
2021/04/28 02:19:31;;;;;;;2.38;2.00;;;;;;;17.43;42.48;100848.75;6325510;22;20018;-80
2021/04/28 02:25:38;;;;;;;5.03;1.83;;;;;;;17.50;42.33;100844.34;6368014;22;20018;-80
2021/04/28 02:47:03;;;;;;;3.22;2.35;;;;;;;17.45;42.70;100823.59;6398450;22;20051;-80
2021/04/28 03:01:08;;;;;;;2.97;2.10;;;;;;;17.41;43.18;100811.47;6350364;22;20096;-80
2021/04/28 03:03:34;;;;;;;2.63;1.80;;;;;;;17.40;42.63;100807.16;6348739;22;20011;-80
2021/04/28 03:06:00;;;;;;;2.75;2.00;;;;;;;17.42;42.77;100802.81;6348190;22;20003;-80
2021/04/28 03:08:28;;;;;;;5.90;2.38;;;;;;;17.40;42.92;100803.72;6351846;22;20014;-81
2021/04/28 03:10:58;;;;;;;2.20;1.92;;;;;;;17.41;42.97;100802.81;6349696;22;20014;-80
2021/04/28 03:29:19;;;;;;;2.97;1.88;;;;;;;17.37;42.97;100795.91;6390571;22;20029;-80
2021/04/28 03:35:59;;;;;;;4.82;2.20;;;;;;;17.33;43.68;100797.66;6367259;22;20088;-80
2021/04/28 03:38:25;;;;;;;2.47;1.92;;;;;;;17.35;43.52;100793.31;6365495;22;20001;-79
2021/04/28 03:55:24;;;;;;;3.13;2.33;;;;;;;17.29;43.33;100796.00;6352496;22;20025;-79
2021/04/28 03:57:49;;;;;;;4.55;2.22;;;;;;;17.26;43.62;100790.81;6325700;22;20015;-80
2021/04/28 04:00:23;;;;;;;3.33;2.22;;;;;;;17.26;43.70;100796.00;6324942;22;20056;-80
2021/04/28 04:02:48;;;;;;;2.92;2.17;;;;;;;17.28;43.13;100794.25;6324300;22;20441;-79
2021/04/28 04:05:14;;;;;;;2.97;2.20;;;;;;;17.28;43.22;100789.06;6351446;22;20077;-79
2021/04/28 04:07:39;;;;;;;2.80;2.30;;;;;;;17.30;43.33;100796.84;6325213;22;20006;-79
2021/04/28 04:10:07;;;;;;;3.83;2.35;;;;;;;17.31;43.40;100796.84;6326487;22;20003;-79
2021/04/28 04:12:33;;;;;;;3.25;2.17;;;;;;;17.32;43.32;100795.09;6355667;22;20017;-79
2021/04/28 04:15:10;;;;;;;4.13;2.30;;;;;;;17.31;43.26;100796.84;6315357;22;20050;-79
2021/04/28 04:20:59;;;;;;;3.30;2.25;;;;;;;17.31;43.33;100798.56;6361387;22;20053;-79
2021/04/28 04:23:25;;;;;;;3.38;2.40;;;;;;;17.30;43.48;100791.66;6332236;22;20446;-80
2021/04/28 04:25:52;;;;;;;3.70;2.10;;;;;;;17.28;43.29;100791.66;6358280;22;19983;-80
2021/04/28 04:28:18;;;;;;;4.18;2.17;;;;;;;17.29;43.47;100785.59;6305848;22;20003;-80
2021/04/28 04:31:01;;;;;;;3.63;2.35;;;;;;;17.27;43.18;100787.34;6342836;22;20022;-79
2021/04/28 04:33:30;;;;;;;3.65;2.30;;;;;;;17.25;43.17;100784.75;6325662;22;20009;-80
2021/04/28 04:35:57;;;;;;;2.88;2.25;;;;;;;17.27;43.18;100782.16;6352112;22;20040;-80
2021/04/28 04:38:24;;;;;;;2.67;2.10;;;;;;;17.29;43.01;100783.00;6352708;22;20041;-80
2021/04/28 04:40:50;;;;;;;3.22;2.22;;;;;;;17.26;43.12;100785.59;6296493;22;20014;-80
2021/04/28 04:43:18;;;;;;;2.85;2.13;;;;;;;17.24;42.81;100788.22;6348797;22;20014;-80
2021/04/28 04:45:43;;;;;;;3.60;2.40;;;;;;;17.24;42.88;100783.00;6349970;22;20005;-80
2021/04/28 04:48:11;;;;;;;2.88;2.50;;;;;;;17.24;42.97;100784.75;6350570;22;20006;-79
2021/04/28 04:50:38;;;;;;;3.25;2.30;;;;;;;17.21;42.88;100784.78;6322285;22;20002;-80
2021/04/28 04:53:09;;;;;;;3.70;2.53;;;;;;;17.27;42.73;100784.75;6347792;22;20074;-80
2021/04/28 04:55:37;;;;;;;2.88;2.15;;;;;;;17.27;42.72;100788.19;6349262;22;20006;-80
2021/04/28 05:04:46;;;;;;;7.20;2.00;;;;;;;17.44;43.13;100785.44;6368081;22;20029;-81
2021/04/28 05:21:23;;;;;;;7.05;2.17;;;;;;;17.57;42.80;100780.09;6378243;22;20075;-79
2021/04/28 05:23:55;;;;;;;3.45;2.10;;;;;;;17.74;42.87;100783.38;6352066;22;20020;-79
2021/04/28 05:38:38;;;;;;;24.08;6.63;;;;;;;19.23;41.28;100770.09;6381592;22;20047;-84
2021/04/28 05:41:03;;;;;;;16.58;5.57;;;;;;;19.36;41.03;100773.31;6355558;22;20349;-83
2021/04/28 05:43:29;;;;;;;17.25;6.05;;;;;;;19.38;40.61;100764.59;6323788;22;20003;-83
2021/04/28 05:45:54;;;;;;;15.95;4.80;;;;;;;19.47;40.24;100764.41;6347878;22;20022;-85
2021/04/28 05:48:20;;;;;;;19.80;5.07;;;;;;;19.53;39.73;100769.53;6346714;22;20006;-85
2021/04/28 05:50:46;;;;;;;11.18;4.13;;;;;;;19.59;39.88;100775.50;6347514;22;20339;-91
2021/04/28 05:53:12;;;;;;;8.60;4.30;;;;;;;19.61;39.44;100766.75;6346001;22;20013;-90
2021/04/28 05:55:38;;;;;;;11.02;4.40;;;;;;;19.67;39.45;100773.63;6344944;22;20079;-90
2021/04/28 05:58:05;;;;;;;14.73;4.40;;;;;;;19.77;38.87;100763.88;6318461;22;20008;-91
2021/04/28 06:04:10;;;;;;;7.05;4.10;;;;;;;19.81;38.69;100766.38;6374347;22;20032;-91
2021/04/28 06:06:36;;;;;;;7.28;4.10;;;;;;;19.83;37.93;100764.59;6338629;22;20013;-90
2021/04/28 06:09:02;;;;;;;7.70;4.13;;;;;;;19.90;38.33;100766.22;6323354;22;20013;-91
2021/04/28 06:11:28;;;;;;;10.40;4.10;;;;;;;19.91;37.98;100762.72;6374799;22;20005;-90
2021/04/28 06:13:53;;;;;;;9.15;3.72;;;;;;;19.95;38.42;100768.75;6373845;22;20007;-90
2021/04/28 06:16:19;;;;;;;8.98;3.78;;;;;;;19.97;37.38;100758.25;6346181;22;20006;-92
2021/04/28 06:18:44;;;;;;;6.55;3.70;;;;;;;20.10;37.16;100759.72;6293817;22;20026;-91
2021/04/28 06:21:10;;;;;;;7.93;3.85;;;;;;;20.14;37.29;100769.19;6318985;22;20010;-91
2021/04/28 06:23:39;;;;;;;8.65;3.35;;;;;;;20.20;36.66;100766.47;6346435;22;20068;-92
2021/04/28 06:26:05;;;;;;;5.90;3.53;;;;;;;20.15;36.64;100770.94;6376921;22;19994;-90
2021/04/28 06:28:30;;;;;;;5.57;3.03;;;;;;;20.20;36.47;100771.69;6360007;22;20417;-90
2021/04/28 06:30:56;;;;;;;7.85;3.75;;;;;;;20.16;37.44;100777.00;6345025;22;20009;-91
2021/04/28 06:33:22;;;;;;;7.18;3.50;;;;;;;20.14;37.37;100769.19;6373904;22;20006;-92
2021/04/28 06:35:47;;;;;;;6.88;3.28;;;;;;;20.19;36.88;100763.91;6377202;22;20025;-91
2021/04/28 06:38:13;;;;;;;7.55;3.35;;;;;;;20.21;36.93;100776.03;6349507;22;20014;-90
2021/04/28 06:40:39;;;;;;;7.95;3.58;;;;;;;20.27;36.92;100775.03;6376371;22;20048;-92
2021/04/28 06:43:05;;;;;;;4.72;2.75;;;;;;;20.27;37.28;100778.53;6379938;22;19999;-92
2021/04/28 06:45:32;;;;;;;6.10;3.03;;;;;;;20.33;36.57;100774.91;6394765;22;20014;-88
2021/04/28 06:47:58;;;;;;;8.30;3.50;;;;;;;20.31;36.48;100769.69;6391361;22;19998;-87
2021/04/28 06:50:24;;;;;;;5.18;3.35;;;;;;;20.33;36.74;100769.66;6386247;22;19999;-92
2021/04/28 06:52:50;;;;;;;4.95;3.10;;;;;;;20.38;36.24;100769.56;6349575;22;20007;-91
2021/04/28 06:55:15;;;;;;;5.72;3.10;;;;;;;20.39;36.46;100766.91;6376466;22;20013;-91
2021/04/28 06:57:41;;;;;;;9.55;3.65;;;;;;;20.47;35.71;100761.50;6382042;22;20029;-91
2021/04/28 07:00:07;;;;;;;6.45;3.50;;;;;;;20.48;35.81;100761.47;6357037;22;20013;-93
2021/04/28 07:02:32;;;;;;;8.25;3.50;;;;;;;20.45;36.54;100763.31;6380171;22;20008;-86
2021/04/28 07:04:58;;;;;;;6.55;3.20;;;;;;;20.39;36.69;100766.91;6374339;22;20070;-88
2021/04/28 07:07:23;;;;;;;5.80;3.17;;;;;;;20.33;36.34;100762.69;6347899;22;20042;-89
2021/04/28 07:09:49;;;;;;;4.88;3.10;;;;;;;20.34;36.00;100759.19;6372493;22;20097;-87
2021/04/28 07:12:14;;;;;;;7.57;3.00;;;;;;;20.33;36.84;100764.44;6320075;22;20341;-87
2021/04/28 07:14:39;;;;;;;4.60;2.78;;;;;;;20.34;36.23;100761.81;6349705;22;20003;-87
2021/04/28 07:17:07;;;;;;;7.03;3.67;;;;;;;20.31;36.83;100763.63;6351753;22;20010;-88
2021/04/28 07:19:32;;;;;;;4.63;3.03;;;;;;;20.26;36.42;100762.88;6374632;22;19998;-87
2021/04/28 07:21:58;;;;;;;6.25;2.85;;;;;;;20.22;36.26;100763.81;6347765;22;20044;-90
2021/04/28 07:24:23;;;;;;;4.63;2.72;;;;;;;20.20;36.09;100760.38;6373686;22;20451;-85
2021/04/28 07:26:57;;;;;;;7.88;3.33;;;;;;;20.17;36.08;100760.47;6346120;22;20053;-85
2021/04/28 07:29:23;;;;;;;7.68;2.60;;;;;;;20.14;36.76;100753.53;6323942;22;20002;-86
2021/04/28 07:31:50;;;;;;;5.75;2.90;;;;;;;20.11;36.44;100761.44;6336669;22;20009;-85
2021/04/28 07:34:15;;;;;;;4.45;2.50;;;;;;;20.09;36.41;100761.47;6354759;22;20070;-85
2021/04/28 07:36:40;;;;;;;4.10;2.70;;;;;;;20.05;36.72;100762.41;6372134;22;20030;-87
2021/04/28 07:39:07;;;;;;;4.03;2.60;;;;;;;20.04;36.49;100763.31;6345824;22;20014;-86
2021/04/28 07:41:34;;;;;;;5.32;2.33;;;;;;;20.05;37.12;100756.34;6347510;22;20021;-89
2021/04/28 07:44:00;;;;;;;6.75;2.45;;;;;;;20.03;36.59;100758.97;6322232;22;20009;-88
2021/04/28 07:46:25;;;;;;;8.68;3.08;;;;;;;19.98;36.19;100755.59;6372587;22;20032;-88
2021/04/28 07:48:50;;;;;;;4.07;2.50;;;;;;;19.99;36.33;100748.63;6373731;22;20006;-88
2021/04/28 07:51:16;;;;;;;4.75;2.75;;;;;;;19.97;35.88;100745.19;6345006;22;19999;-86
2021/04/28 07:53:41;;;;;;;5.05;2.65;;;;;;;19.91;37.01;100747.03;6371816;22;20007;-85
2021/04/28 07:56:07;;;;;;;4.03;2.85;;;;;;;19.92;36.80;100746.16;6372093;22;20002;-86
2021/04/28 07:58:32;;;;;;;6.05;2.92;;;;;;;19.89;36.23;100751.44;6345228;22;20003;-87
2021/04/28 08:00:57;;;;;;;5.03;2.42;;;;;;;19.91;37.45;100744.44;6345338;22;20007;-86
2021/04/28 08:03:23;;;;;;;4.45;2.53;;;;;;;19.91;36.52;100744.44;6344798;22;20006;-85
2021/04/28 08:05:48;;;;;;;4.18;2.47;;;;;;;19.85;36.30;100738.47;6372560;22;20078;-85
2021/04/28 08:08:14;;;;;;;6.28;2.50;;;;;;;19.89;35.94;100743.59;6347055;22;20011;-87
2021/04/28 08:10:39;;;;;;;4.75;2.55;;;;;;;19.89;36.42;100743.59;6374898;22;20006;-85
2021/04/28 08:13:08;;;;;;;4.80;2.70;;;;;;;19.83;35.74;100743.72;6380264;22;20091;-85
2021/04/28 08:15:35;;;;;;;5.13;2.85;;;;;;;19.77;35.38;100743.84;6385026;22;20009;-84
2021/04/28 08:18:00;;;;;;;3.55;2.58;;;;;;;19.80;36.48;100743.78;6346699;22;20318;-86
2021/04/28 08:20:26;;;;;;;6.97;2.55;;;;;;;19.82;35.95;100741.16;6374330;22;20032;-85
2021/04/28 08:22:51;;;;;;;6.20;2.80;;;;;;;19.78;36.32;100739.50;6375773;22;20002;-86
2021/04/28 08:25:17;;;;;;;5.45;2.45;;;;;;;19.80;35.71;100728.13;6373992;22;20329;-87
2021/04/28 08:27:42;;;;;;;4.38;2.58;;;;;;;19.73;34.83;100726.53;6346325;22;20047;-86
2021/04/28 08:30:10;;;;;;;5.22;2.70;;;;;;;19.76;35.39;100742.13;6376497;22;20026;-85
2021/04/28 08:32:38;;;;;;;3.75;2.75;;;;;;;19.80;34.70;100735.97;6374357;22;20387;-85
2021/04/28 08:35:05;;;;;;;4.80;2.47;;;;;;;19.74;35.73;100736.06;6347407;22;20011;-85
2021/04/28 08:37:30;;;;;;;6.55;2.67;;;;;;;19.79;34.32;100738.59;6374490;22;20457;-85
2021/04/28 08:39:56;;;;;;;3.03;2.40;;;;;;;19.79;35.19;100741.19;6375821;22;20006;-84
2021/04/28 08:42:21;;;;;;;3.15;2.30;;;;;;;19.78;35.27;100736.88;6348163;22;20014;-85
2021/04/28 08:44:47;;;;;;;4.03;2.15;;;;;;;19.77;36.41;100733.41;6372724;22;20012;-85
2021/04/28 08:47:14;;;;;;;3.90;2.45;;;;;;;19.71;34.27;100737.00;6348700;22;20007;-85
2021/04/28 08:49:39;;;;;;;5.43;2.80;;;;;;;19.71;34.64;100743.97;6376694;22;20082;-85
2021/04/28 08:52:05;;;;;;;5.70;2.33;;;;;;;19.71;34.71;100746.59;6375678;22;20329;-83
2021/04/28 08:54:31;;;;;;;3.58;2.40;;;;;;;19.68;35.92;100734.41;6377510;22;20059;-84
2021/04/28 08:56:58;;;;;;;3.20;2.10;;;;;;;19.72;35.41;100738.72;6390108;22;20002;-83
2021/04/28 08:59:25;;;;;;;6.28;2.47;;;;;;;19.69;36.61;100740.50;6377682;22;20021;-84
2021/04/28 09:01:50;;;;;;;5.70;2.63;;;;;;;19.66;35.46;100741.44;6349475;22;20010;-84
2021/04/28 09:04:18;;;;;;;4.00;2.50;;;;;;;19.63;35.46;100736.25;6375754;22;20003;-84
2021/04/28 09:06:45;;;;;;;4.70;2.70;;;;;;;19.61;34.71;100734.56;6374149;22;20041;-82
2021/04/28 09:09:16;;;;;;;6.13;2.92;;;;;;;19.61;34.66;100745.00;6376080;22;20077;-83
2021/04/28 09:11:54;;;;;;;4.15;2.60;;;;;;;19.56;33.91;100721.63;6377549;22;19999;-83
2021/04/28 09:14:23;;;;;;;5.03;2.65;;;;;;;19.57;34.11;100715.50;6381099;22;20006;-84
2021/04/28 09:16:52;;;;;;;6.57;2.38;;;;;;;19.58;35.08;100719.84;6382800;22;20077;-84
2021/04/28 09:19:20;;;;;;;5.05;2.80;;;;;;;19.49;34.03;100715.66;6389455;22;20002;-83
2021/04/28 09:22:06;;;;;;;4.35;2.70;;;;;;;19.54;35.68;100720.78;6398608;22;19996;-83
2021/04/28 09:24:37;;;;;;;3.90;2.70;;;;;;;19.45;33.70;100707.91;6382881;22;20167;-82
2021/04/28 09:27:26;;;;;;;6.95;2.65;;;;;;;19.44;33.64;100714.88;6381176;22;20085;-83
2021/04/28 09:29:53;;;;;;;4.70;2.50;;;;;;;19.44;33.49;100714.00;6375647;22;20009;-80
2021/04/28 09:32:19;;;;;;;5.93;3.40;;;;;;;19.44;32.88;100716.63;6375759;22;20006;-83
2021/04/28 09:34:44;;;;;;;4.40;2.78;;;;;;;19.40;33.79;100708.00;6381230;22;20372;-82
2021/04/28 09:37:15;;;;;;;6.88;2.90;;;;;;;19.39;33.69;100705.41;6378451;22;20380;-81
2021/04/28 09:39:59;;;;;;;5.18;3.08;;;;;;;19.42;33.47;100700.13;6353359;22;20007;-80
2021/04/28 09:42:24;;;;;;;6.40;2.67;;;;;;;19.41;33.62;100714.94;6320375;22;20007;-83
2021/04/28 09:44:50;;;;;;;7.00;3.17;;;;;;;19.33;32.79;100698.56;6319035;22;20006;-82
2021/04/28 09:47:15;;;;;;;7.18;3.38;;;;;;;19.29;32.74;100700.38;6320851;22;20010;-81
2021/04/28 09:50:00;;;;;;;5.45;3.60;;;;;;;19.28;33.18;100695.19;6321813;22;20086;-81
2021/04/28 09:52:28;;;;;;;4.45;3.33;;;;;;;19.29;32.84;100708.22;6294766;22;20022;-82
2021/04/28 09:54:57;;;;;;;4.80;3.35;;;;;;;19.17;32.31;100698.00;6347867;22;20052;-81
2021/04/28 09:57:46;;;;;;;5.95;3.00;;;;;;;19.24;33.56;100690.91;6324011;22;20426;-83
2021/04/28 10:00:29;;;;;;;6.45;3.03;;;;;;;19.27;33.90;100691.72;6321162;22;20009;-81
2021/04/28 10:02:58;;;;;;;4.38;2.67;;;;;;;19.32;33.59;100695.09;6322291;22;20429;-83
2021/04/28 10:05:25;;;;;;;6.97;3.00;;;;;;;19.29;33.50;100683.84;6323566;22;20455;-80
2021/04/28 10:08:14;;;;;;;5.63;3.10;;;;;;;19.24;32.55;100678.72;6347919;22;19999;-83
2021/04/28 10:10:41;;;;;;;5.45;3.05;;;;;;;19.24;33.00;100672.66;6322812;22;19999;-86
2021/04/28 10:13:07;;;;;;;6.00;3.10;;;;;;;19.28;33.47;100672.56;6323598;22;20003;-82
2021/04/28 10:15:33;;;;;;;5.82;2.78;;;;;;;19.28;33.33;100682.16;6296127;22;20021;-81
2021/04/28 10:18:02;;;;;;;4.18;2.90;;;;;;;19.25;33.52;100671.75;6318392;22;20017;-81
2021/04/28 10:20:31;;;;;;;7.22;3.05;;;;;;;19.18;32.66;100660.56;6320378;22;20070;-80
2021/04/28 10:23:05;;;;;;;10.82;3.35;;;;;;;19.16;33.15;100669.31;6332177;22;20029;-83
2021/04/28 11:23:13;;;;;;;6.65;3.83;;;;;;;18.78;32.50;100637.84;6386846;22;20048;-83
2021/04/28 11:26:04;;;;;;;7.07;4.10;;;;;;;18.76;32.13;100629.16;6358855;22;20053;-85
2021/04/28 11:56:19;;;;;;;7.78;3.88;;;;;;;18.76;31.96;100610.91;6370650;22;20032;-83
2021/04/28 12:38:44;;;;;;;7.97;4.55;;;;;;;18.92;31.97;100606.28;6380710;22;20048;-81
2021/04/28 12:44:36;;;;;;;6.55;4.50;;;;;;;18.93;31.98;100601.97;6394378;22;20021;-82
2021/04/28 12:47:03;;;;;;;5.72;4.15;;;;;;;18.94;32.06;100607.13;6392655;22;20005;-81
2021/04/28 12:49:28;;;;;;;5.97;4.50;;;;;;;18.89;31.92;100604.59;6346763;22;20014;-83
2021/04/28 12:51:57;;;;;;;8.15;4.50;;;;;;;18.95;32.35;100606.25;6335790;22;20037;-81
2021/04/28 13:08:37;;;;;;;6.38;4.60;;;;;;;18.93;32.26;100605.41;6400138;22;20090;-87
2021/04/28 14:06:58;;;;;;;8.82;5.85;;;;;;;18.96;31.99;100534.09;6360151;22;20025;-83
2021/04/28 14:12:11;;;;;;;7.93;5.85;;;;;;;18.90;31.47;100528.13;6348268;22;20075;-86
2021/04/28 14:44:25;;;;;;;;;;;;;;;18.96;32.42;100523.66;6385841;22;20025;-83
2021/04/28 14:46:54;;;;;;;10.88;5.50;;;;;;;18.95;32.72;100521.97;6227848;23;19916;-80
2021/04/28 14:49:27;;;;;;;6.38;5.38;;;;;;;18.94;32.48;100523.69;6204482;23;20024;-81
2021/04/28 14:51:53;;;;;;;;;;;;;;;18.90;32.35;100517.69;6227633;23;20001;-80
2021/04/28 14:54:18;;;;;;;6.70;5.43;;;;;;;18.91;32.63;100508.97;6199526;23;19908;-80
2021/04/28 15:00:57;;;;;;;8.68;5.40;;;;;;;18.83;32.09;100515.22;6279314;22;20054;-80
2021/04/28 15:03:41;;;;;;;8.63;5.38;;;;;;;18.80;32.04;100518.75;6255633;23;20016;-79
2021/04/28 15:06:35;;;;;;;8.80;5.53;;;;;;;18.76;31.47;100518.81;6267796;23;20088;-83
2021/04/28 15:33:54;;;;;;;8.32;4.50;;;;;;;18.96;33.44;100500.19;6279599;22;20159;-89
2021/04/28 15:54:49;;;;;;;10.80;4.70;;;;;;;18.91;33.17;100459.44;6337462;22;20097;-81
2021/04/28 15:57:15;;;;;;;7.25;4.28;;;;;;;18.93;33.45;100450.72;6384524;22;20014;-82
2021/04/28 15:59:40;;;;;;;7.88;4.35;;;;;;;18.93;33.63;100446.38;6359091;22;20002;-81
2021/04/28 16:02:13;;;;;;;10.77;4.55;;;;;;;18.98;33.72;100452.34;6384134;22;20028;-82
2021/04/28 16:04:49;;;;;;;7.38;3.75;;;;;;;18.95;34.05;100451.56;6359786;22;20010;-81
2021/04/28 16:07:15;;;;;;;9.27;4.00;;;;;;;18.93;33.66;100448.97;6361078;22;20017;-82
2021/04/28 16:22:59;;;;;;;9.50;3.83;;;;;;;18.96;33.76;100440.22;6295841;22;20058;-83
2021/04/28 16:39:26;;;;;;;5.28;3.90;;;;;;;19.02;34.70;100440.09;6306731;22;20107;-81
2021/04/28 16:55:21;;;;;;;7.47;4.32;;;;;;;18.96;34.71;100442.84;6353461;22;20017;-80
2021/04/28 17:01:08;;;;;;;6.10;3.70;;;;;;;19.03;35.17;100441.78;6354029;22;20333;-80
2021/04/28 17:03:43;;;;;;;5.78;3.95;;;;;;;19.01;34.60;100431.41;6325054;22;20062;-80
2021/04/28 17:06:08;;;;;;;8.68;4.40;;;;;;;18.93;34.66;100428.13;6324178;22;20007;-80
2021/04/28 17:08:34;;;;;;;7.70;4.53;;;;;;;18.84;34.79;100443.97;6300852;22;20085;-81
2021/04/28 17:11:03;;;;;;;9.68;4.70;;;;;;;18.81;34.69;100437.03;6327956;22;20013;-80
2021/04/28 17:13:46;;;;;;;5.63;4.40;;;;;;;18.84;35.13;100436.13;6364443;22;20020;-80
2021/04/28 17:16:17;;;;;;;5.97;4.35;;;;;;;18.87;35.19;100434.31;6331380;22;20003;-83
2021/04/28 17:25:03;;;;;;;8.05;4.30;;;;;;;18.88;35.56;100432.59;6367456;22;20025;-88
2021/04/28 17:47:59;;;;;;;5.13;3.80;;;;;;;18.83;36.14;100424.84;6391405;22;20021;-82
2021/04/28 17:50:32;;;;;;;5.18;4.00;;;;;;;18.79;36.30;100422.31;6390200;22;20013;-81
2021/04/28 17:52:59;;;;;;;6.65;4.15;;;;;;;18.75;36.31;100428.47;6363717;22;20006;-81
2021/04/28 17:58:47;;;;;;;6.50;4.40;;;;;;;18.69;36.04;100435.53;6392678;22;20022;-80
2021/04/28 18:25:26;;;;;;;6.65;4.18;;;;;;;18.67;37.47;100421.66;6379099;22;20034;-82
2021/04/28 19:08:30;;;;;;;8.90;4.25;;;;;;;18.60;37.91;100453.97;6302953;22;20030;-81
2021/04/28 19:14:48;;;;;;;5.32;3.90;;;;;;;18.46;37.38;100463.78;6361500;22;20013;-80
2021/04/28 19:20:59;;;;;;;5.53;4.30;;;;;;;18.40;37.43;100458.69;6235546;23;20020;-80
2021/04/28 19:27:05;;;;;;;6.93;4.25;;;;;;;18.39;37.51;100468.25;6365687;22;20021;-80
2021/04/28 20:27:07;;;;;;;5.90;3.58;;;;;;;18.35;37.42;100463.13;6296906;22;20023;-84
2021/04/28 20:54:45;;;;;;;;;;;;;;;18.42;37.69;100482.97;6332676;22;19925;-86
2021/04/28 21:00:40;;;;;;;4.80;3.75;;;;;;;18.25;37.65;100481.53;6350883;22;20099;-81
2021/04/28 21:03:07;;;;;;;4.55;3.38;;;;;;;18.29;37.85;100483.19;6384267;22;20408;-81
2021/04/28 21:09:04;;;;;;;6.35;3.85;;;;;;;18.23;37.48;100474.66;6393893;22;20085;-82
2021/04/28 21:11:58;;;;;;;5.30;3.80;;;;;;;18.23;37.66;100466.84;6394980;22;20024;-80
2021/04/28 21:18:02;;;;;;;6.55;3.95;;;;;;;18.06;37.74;100457.56;6352381;22;20045;-79
2021/04/28 21:20:30;;;;;;;5.45;4.10;;;;;;;17.92;37.36;100454.34;6326376;22;20011;-78
2021/04/28 21:23:03;;;;;;;7.85;4.18;;;;;;;17.86;37.92;100452.69;6351778;22;20040;-78
2021/04/28 21:28:51;;;;;;;5.43;3.95;;;;;;;17.81;37.82;100464.91;6352833;22;20017;-79
2021/04/28 21:31:18;;;;;;;10.15;4.32;;;;;;;17.77;37.44;100478.84;6326795;22;20030;-81
2021/04/28 21:33:50;;;;;;;6.78;4.28;;;;;;;17.60;37.49;100473.06;6330342;22;20011;-81
2021/04/28 21:50:56;;;;;;;7.25;4.50;;;;;;;17.57;37.69;100458.34;6364719;22;20022;-79
2021/04/28 21:57:52;;;;;;;5.30;4.00;;;;;;;17.61;37.82;100452.19;6332932;22;20014;-79
2021/04/28 22:10:54;;;;;;;6.85;3.65;;;;;;;17.61;37.94;100464.34;6381219;22;20021;-81
2021/04/28 23:23:46;;;;;;;8.57;3.97;;;;;;;17.30;37.74;100428.41;6325626;22;20026;31
